createdAt,value
2023-01-03T00:03:26.345Z,102054.97
2023-01-03T00:07:35.561Z,102061.19
2023-01-03T00:11:56.059Z,102059.38
2023-01-03T00:15:55.549Z,102049.81
2023-01-03T00:19:54.932Z,102049.59
2023-01-03T00:23:53.820Z,102053.56
2023-01-03T00:27:55.665Z,102056.66
2023-01-03T00:31:55.616Z,102048.81
2023-01-03T00:35:55.016Z,102050.03
2023-01-03T00:39:53.891Z,102046.22
2023-01-03T00:43:55.516Z,102047.34
2023-01-03T00:47:54.415Z,102046.47
2023-01-03T00:51:54.249Z,102045.72
2023-01-03T00:55:53.240Z,102046.94
2023-01-03T00:59:54.849Z,102039.59
2023-01-03T01:03:55.761Z,102040.13
2023-01-03T01:07:55.185Z,102043.00
2023-01-03T01:11:54.869Z,102033.97
2023-01-03T01:15:56.034Z,102042.28
2023-01-03T01:19:55.949Z,102039.66
2023-01-03T01:23:55.573Z,102032.81
2023-01-03T01:27:55.059Z,102028.16
2023-01-03T01:31:57.076Z,102039.97
2023-01-03T01:35:56.497Z,102033.25
2023-01-03T01:39:55.742Z,102036.81
2023-01-03T01:44:14.979Z,102038.91
2023-01-03T01:48:16.528Z,102034.16
2023-01-03T01:52:17.810Z,102028.00
2023-01-03T01:56:18.422Z,102028.19
2023-01-03T02:00:18.200Z,102024.91
2023-01-03T02:04:23.369Z,102019.59
2023-01-03T02:08:24.730Z,102013.75
2023-01-03T02:12:43.926Z,102002.13
2023-01-03T02:17:06.346Z,102005.19
2023-01-03T02:21:35.088Z,102009.63
2023-01-03T02:26:02.995Z,102004.41
2023-01-03T02:30:10.589Z,102002.47
2023-01-03T02:34:16.031Z,101994.19
2023-01-03T02:38:22.779Z,101994.41
2023-01-03T02:42:42.195Z,101997.41
2023-01-03T02:46:45.602Z,101998.94
2023-01-03T02:50:47.548Z,101994.84
2023-01-03T02:54:48.527Z,101996.81
2023-01-03T02:58:50.402Z,101991.63
2023-01-03T03:02:53.919Z,101983.16
2023-01-03T03:06:58.704Z,101987.66
2023-01-03T03:11:15.454Z,101988.72
2023-01-03T03:15:17.286Z,101986.81
2023-01-03T03:19:35.412Z,101987.44
2023-01-03T03:23:53.871Z,101985.25
2023-01-03T03:28:11.392Z,101982.31
2023-01-03T03:32:10.775Z,101989.56
2023-01-03T03:36:14.806Z,101991.56
2023-01-03T03:40:30.833Z,101989.97
2023-01-03T03:44:50.279Z,101990.03
2023-01-03T03:49:07.151Z,101994.53
2023-01-03T03:53:20.576Z,101994.34
2023-01-03T03:57:23.105Z,101991.00
2023-01-03T04:01:24.739Z,101992.72
2023-01-03T04:05:27.229Z,102000.22
2023-01-03T04:09:28.953Z,101998.28
2023-01-03T04:13:27.945Z,101998.19
2023-01-03T04:17:27.416Z,102002.69
2023-01-03T04:21:27.532Z,101995.78
2023-01-03T04:25:28.787Z,101992.78
2023-01-03T04:29:30.748Z,101987.50
2023-01-03T04:33:32.355Z,101993.81
2023-01-03T04:37:31.945Z,102000.78
2023-01-03T04:41:36.211Z,101994.66
2023-01-03T04:45:36.150Z,101994.28
2023-01-03T04:49:35.489Z,102006.75
2023-01-03T04:53:35.127Z,102005.50
2023-01-03T04:57:36.298Z,102003.97
2023-01-03T05:01:36.179Z,102003.50
2023-01-03T05:05:35.121Z,102004.22
2023-01-03T05:09:34.591Z,102008.19
2023-01-03T05:13:35.881Z,102014.09
2023-01-03T05:17:35.518Z,102013.91
2023-01-03T05:21:51.743Z,102015.38
2023-01-03T05:25:53.988Z,102017.25
2023-01-03T05:29:56.065Z,102019.97
2023-01-03T05:33:57.490Z,102025.22
2023-01-03T05:38:00.729Z,102022.91
2023-01-03T05:42:03.090Z,102023.72
2023-01-03T05:46:04.996Z,102020.91
2023-01-03T05:50:04.515Z,102024.22
2023-01-03T05:54:03.869Z,102023.94
2023-01-03T05:58:02.929Z,102025.00
2023-01-03T06:02:05.020Z,102028.56
2023-01-03T06:06:04.580Z,102030.06
2023-01-03T06:10:04.509Z,102029.69
2023-01-03T06:14:04.582Z,102038.66
2023-01-03T06:18:06.424Z,102037.94
2023-01-03T06:22:10.895Z,102042.78
2023-01-03T06:26:11.207Z,102038.22
2023-01-03T06:30:11.828Z,102040.94
2023-01-03T06:34:13.125Z,102046.13
2023-01-03T06:38:12.946Z,102042.72
2023-01-03T06:42:28.997Z,102040.84
2023-01-03T06:46:44.539Z,102056.97
2023-01-03T06:51:02.759Z,102044.56
2023-01-03T06:55:02.518Z,102048.09
2023-01-03T06:59:01.430Z,102038.91
2023-01-03T07:03:04.346Z,102049.44
2023-01-03T07:07:40.191Z,102048.13
2023-01-03T07:11:42.127Z,102050.34
2023-01-03T07:16:39.988Z,102043.97
2023-01-03T07:20:49.441Z,102055.47
2023-01-03T07:24:48.908Z,102051.13
2023-01-03T07:28:55.131Z,102051.88
2023-01-03T07:32:58.417Z,102054.75
2023-01-03T07:53:54.220Z,102044.31
2023-01-03T07:57:53.517Z,102043.31
2023-01-03T08:01:52.958Z,102046.38
2023-01-03T08:05:52.302Z,102039.69
2023-01-03T08:10:15.125Z,102050.16
2023-01-03T08:14:14.680Z,102047.53
2023-01-03T08:18:13.830Z,102050.25
2023-01-03T08:22:13.344Z,102061.66
2023-01-03T08:26:15.764Z,102067.06
2023-01-03T08:30:14.780Z,102069.22
2023-01-03T08:34:19.753Z,102067.31
2023-01-03T08:38:23.429Z,102066.22
2023-01-03T08:42:26.387Z,102065.03
2023-01-03T08:46:29.039Z,102064.63
2023-01-03T08:50:30.173Z,102066.75
2023-01-03T08:54:29.137Z,102058.19
2023-01-03T08:58:30.865Z,102053.53
2023-01-03T09:02:29.891Z,102044.38
2023-01-03T09:06:41.030Z,102042.50
2023-01-03T09:10:47.182Z,102026.88
2023-01-03T09:14:48.905Z,102010.78
2023-01-03T09:18:52.488Z,102010.19
2023-01-03T09:22:51.813Z,102012.69
2023-01-03T09:26:54.729Z,102002.19
2023-01-03T09:30:56.527Z,102008.00
2023-01-03T09:34:55.980Z,101999.34
2023-01-03T09:38:54.954Z,101990.81
2023-01-03T09:43:19.822Z,101988.13
2023-01-03T09:47:26.167Z,101981.88
2023-01-03T09:51:44.466Z,101984.16
2023-01-03T09:56:21.331Z,101977.56
2023-01-03T10:00:38.995Z,101964.81
2023-01-03T10:04:51.716Z,101966.91
2023-01-03T10:09:03.830Z,101955.13
2023-01-03T10:13:14.705Z,101943.88
2023-01-03T10:17:24.815Z,101942.09
2023-01-03T10:21:29.172Z,101943.72
2023-01-03T10:25:30.615Z,101936.81
2023-01-03T10:29:29.922Z,101939.56
2023-01-03T10:33:32.364Z,101928.34
2023-01-03T10:37:33.402Z,101916.44
2023-01-03T10:41:34.298Z,101921.75
2023-01-03T10:45:42.769Z,101922.03
2023-01-03T10:49:51.870Z,101915.22
2023-01-03T10:53:55.189Z,101917.03
2023-01-03T10:58:02.657Z,101905.78
2023-01-03T11:02:03.557Z,101895.25
2023-01-03T11:06:15.837Z,101890.91
2023-01-03T11:10:34.561Z,101888.28
2023-01-03T11:14:34.187Z,101882.03
2023-01-03T11:18:33.541Z,101878.53
2023-01-03T11:22:39.229Z,101877.69
2023-01-03T11:26:44.919Z,101868.91
2023-01-03T11:30:52.221Z,101866.22
2023-01-03T11:35:25.355Z,101862.84
2023-01-03T11:39:39.385Z,101863.72
2023-01-03T11:43:45.594Z,101851.44
2023-01-03T11:48:31.659Z,101856.75
2023-01-03T11:52:38.103Z,101856.03
2023-01-03T11:56:38.832Z,101851.69
2023-01-03T12:00:55.436Z,101855.13
2023-01-03T12:05:05.739Z,101856.94
2023-01-03T12:09:16.474Z,101842.03
2023-01-03T12:13:29.064Z,101845.56
2023-01-03T12:17:35.925Z,101840.25
2023-01-03T12:21:47.407Z,101837.66
2023-01-03T12:25:50.745Z,101828.84
2023-01-03T12:29:54.237Z,101835.03
2023-01-03T12:33:58.227Z,101832.41
2023-01-03T12:38:00.640Z,101822.72
2023-01-03T12:42:03.767Z,101814.81
2023-01-03T12:46:12.127Z,101813.06
2023-01-03T12:50:19.716Z,101817.44
2023-01-03T12:54:25.441Z,101824.47
2023-01-03T12:58:39.284Z,101825.34
2023-01-03T13:02:45.457Z,101835.00
2023-01-03T13:06:48.622Z,101831.50
2023-01-03T13:10:53.226Z,101841.19
2023-01-03T13:14:56.669Z,101844.72
2023-01-03T13:18:56.063Z,101844.72
2023-01-03T13:22:55.936Z,101849.13
2023-01-03T13:27:13.019Z,101845.59
2023-01-03T13:31:31.185Z,101846.47
2023-01-03T13:35:36.327Z,101854.41
2023-01-03T13:39:42.258Z,101851.75
2023-01-03T13:43:41.282Z,101856.16
2023-01-03T13:47:45.068Z,101856.16
2023-01-03T13:51:51.365Z,101851.72
2023-01-03T13:56:02.586Z,101852.59
2023-01-03T14:00:03.774Z,101850.81
2023-01-03T14:04:45.903Z,101854.31
2023-01-03T14:09:03.457Z,101856.91
2023-01-03T14:13:14.393Z,101851.66
2023-01-03T14:17:20.749Z,101865.69
2023-01-03T14:21:25.925Z,101860.41
2023-01-03T14:25:35.402Z,101865.69
2023-01-03T14:29:39.181Z,101860.34
2023-01-03T14:33:41.567Z,101861.19
2023-01-03T14:37:48.348Z,101856.81
2023-01-03T14:41:49.192Z,101866.44
2023-01-03T14:45:55.024Z,101866.41
2023-01-03T14:49:54.624Z,101856.75
2023-01-03T14:53:55.672Z,101864.63
2023-01-03T14:58:04.298Z,101869.00
2023-01-03T15:02:06.995Z,101874.25
2023-01-03T15:06:18.019Z,101873.31
2023-01-03T15:10:24.024Z,101875.09
2023-01-03T15:14:24.084Z,101873.19
2023-01-03T15:18:27.042Z,101873.16
2023-01-03T15:22:28.283Z,101877.50
2023-01-03T15:26:28.946Z,101873.00
2023-01-03T15:30:32.015Z,101884.47
2023-01-03T15:34:42.659Z,101891.56
2023-01-03T15:38:44.033Z,101893.28
2023-01-03T15:43:02.227Z,101894.16
2023-01-03T15:47:02.755Z,101902.03
2023-01-03T15:51:04.784Z,101896.78
2023-01-03T15:55:03.683Z,101904.63
2023-01-03T15:59:05.307Z,101907.25
2023-01-03T16:03:04.968Z,101914.31
2023-01-03T16:07:06.653Z,101908.19
2023-01-03T16:11:07.497Z,101915.16
2023-01-03T16:15:08.294Z,101917.00
2023-01-03T16:19:08.221Z,101924.03
2023-01-03T16:23:17.303Z,101929.91
2023-01-03T16:27:17.329Z,101934.88
2023-01-03T16:31:48.293Z,101942.03
2023-01-03T17:10:54.563Z,101973.03
2023-01-03T22:34:22.443Z,102111.59
2023-01-03T23:12:54.808Z,102127.59
2023-01-03T23:35:57.971Z,102140.56
2023-01-03T23:41:10.786Z,102155.06
